Time;durP1;ratioP1;P1;durP2;ratioP2;P2;SDS_P1;SDS_P2;PMS_P1;PMS_P2;Temp;Humidity;BMP_temperature;BMP_pressure;BME280_temperature;BME280_humidity;BME280_pressure;Samples;Min_cycle;Max_cycle;Signal;HPM_P1;HPM_P2
2023/02/06 00:01:17;;;;;;;54.08;29.60;;;-1.90;99.90;;;;;;4961292;28;20210;-83
2023/02/06 00:03:44;;;;;;;50.88;28.27;;;-1.90;99.90;;;;;;4961788;29;20238;-83
2023/02/06 00:06:12;;;;;;;44.63;29.58;;;-1.80;99.90;;;;;;4961103;28;20230;-84
2023/02/06 00:08:39;;;;;;;48.95;28.90;;;-1.90;99.90;;;;;;4960589;28;20266;-84
2023/02/06 00:11:08;;;;;;;56.63;34.03;;;-2.00;99.90;;;;;;4960351;29;20202;-82
2023/02/06 00:13:35;;;;;;;58.55;30.98;;;-2.00;99.90;;;;;;4961697;28;20217;-83
2023/02/06 00:16:03;;;;;;;52.88;30.48;;;-1.90;99.90;;;;;;4959557;28;20368;-82
2023/02/06 00:18:31;;;;;;;58.25;33.83;;;-1.80;99.90;;;;;;4960237;29;20278;-82
2023/02/06 00:20:57;;;;;;;52.10;30.58;;;-1.70;99.90;;;;;;4975640;28;20253;-82
2023/02/06 00:23:25;;;;;;;50.35;30.90;;;-2.00;99.90;;;;;;4960396;29;20232;-83
2023/02/06 00:25:52;;;;;;;44.33;26.55;;;-1.90;99.90;;;;;;4961476;28;20231;-82
2023/02/06 00:28:19;;;;;;;51.55;27.27;;;-2.00;99.90;;;;;;4961445;28;20495;-81
2023/02/06 00:30:47;;;;;;;49.75;29.23;;;-1.90;99.90;;;;;;4961257;28;20210;-81
2023/02/06 00:33:14;;;;;;;47.78;30.88;;;-2.00;99.90;;;;;;4961294;28;20206;-84
2023/02/06 00:35:41;;;;;;;46.47;29.60;;;-2.20;99.90;;;;;;4961071;29;20211;-85
2023/02/06 00:38:10;;;;;;;41.47;27.02;;;-2.00;99.90;;;;;;4964902;28;20566;-83
2023/02/06 00:40:37;;;;;;;50.13;31.38;;;-2.10;99.90;;;;;;4961999;28;20258;-86
2023/02/06 00:43:05;;;;;;;53.03;28.30;;;-2.00;99.90;;;;;;4962934;29;20491;-84
2023/02/06 00:45:32;;;;;;;46.10;27.52;;;-1.80;99.90;;;;;;4964808;28;20227;-87
2023/02/06 00:48:00;;;;;;;45.55;26.73;;;-1.80;99.90;;;;;;4968759;29;20214;-86
2023/02/06 00:50:27;;;;;;;44.13;28.33;;;-1.60;99.90;;;;;;4966357;29;20213;-86
2023/02/06 00:52:54;;;;;;;39.67;25.92;;;-1.70;99.90;;;;;;4952272;28;20253;-84
2023/02/06 00:55:22;;;;;;;48.60;30.50;;;-1.50;99.90;;;;;;4963055;28;20254;-86
2023/02/06 00:57:48;;;;;;;39.72;26.10;;;-1.60;99.90;;;;;;4951358;28;20215;-84
2023/02/06 01:00:16;;;;;;;42.13;29.38;;;-1.50;99.90;;;;;;4957182;28;20230;-83
2023/02/06 01:02:43;;;;;;;45.92;26.90;;;-1.50;99.90;;;;;;4960908;28;20207;-85
2023/02/06 01:05:10;;;;;;;45.40;28.58;;;-1.90;99.90;;;;;;4962413;29;20227;-84
2023/02/06 01:07:39;;;;;;;50.63;28.75;;;-1.70;99.90;;;;;;4961712;28;20202;-84
2023/02/06 01:10:07;;;;;;;42.03;26.88;;;-1.50;99.90;;;;;;4961843;28;20249;-84
2023/02/06 01:12:35;;;;;;;38.58;25.15;;;-1.40;99.90;;;;;;4961719;28;20250;-85
2023/02/06 01:15:04;;;;;;;37.35;26.60;;;-1.40;99.90;;;;;;4961242;29;20254;-84
2023/02/06 01:17:31;;;;;;;44.53;27.33;;;-1.80;99.90;;;;;;4961894;28;20214;-86
2023/02/06 01:19:59;;;;;;;36.38;22.90;;;-1.80;99.90;;;;;;4959413;28;20207;-81
2023/02/06 01:22:26;;;;;;;53.25;28.90;;;-1.80;99.90;;;;;;4963137;28;20290;-81
2023/02/06 01:24:53;;;;;;;48.67;30.85;;;-1.80;99.90;;;;;;4963007;28;20210;-81
2023/02/06 01:27:20;;;;;;;40.65;25.98;;;-2.00;99.90;;;;;;4963440;29;20246;-80
2023/02/06 01:29:47;;;;;;;42.05;26.25;;;-2.10;99.90;;;;;;4964025;29;20723;-82
2023/02/06 01:32:14;;;;;;;47.38;28.30;;;-2.00;99.90;;;;;;4963348;28;20210;-83
2023/02/06 01:34:41;;;;;;;43.90;29.35;;;-2.00;99.90;;;;;;4963755;29;20494;-81
2023/02/06 01:37:08;;;;;;;49.58;28.80;;;-2.10;99.90;;;;;;4965383;28;20507;-83
2023/02/06 01:39:35;;;;;;;46.88;30.52;;;-2.00;99.90;;;;;;4964474;29;20217;-82
2023/02/06 01:42:03;;;;;;;52.20;31.50;;;-2.20;99.90;;;;;;4964719;28;20217;-84
2023/02/06 01:44:31;;;;;;;54.70;28.70;;;-2.30;99.90;;;;;;4964845;28;20208;-82
2023/02/06 01:46:58;;;;;;;52.00;28.65;;;-2.60;99.90;;;;;;4964957;28;20258;-83
2023/02/06 01:49:31;;;;;;;51.85;34.65;;;-2.60;99.90;;;;;;4965305;28;20216;-82
2023/02/06 01:52:06;;;;;;;60.40;31.80;;;-2.40;99.90;;;;;;4965872;28;20239;-83
2023/02/06 01:54:33;;;;;;;55.30;33.47;;;-2.50;99.90;;;;;;4965000;28;20286;-84
2023/02/06 01:57:05;;;;;;;54.40;33.58;;;-2.20;99.90;;;;;;4962932;28;20259;-82
2023/02/06 01:59:34;;;;;;;56.53;35.38;;;-2.30;99.90;;;;;;4962070;29;20226;-82
2023/02/06 02:02:01;;;;;;;51.78;33.38;;;-2.30;99.90;;;;;;4952267;28;20214;-81
2023/02/06 02:04:32;;;;;;;59.60;36.25;;;-2.10;99.90;;;;;;4960386;29;20199;-82
2023/02/06 02:07:44;;;;;;;63.03;35.58;;;-2.10;99.90;;;;;;4963323;28;20266;-82
2023/02/06 02:10:11;;;;;;;52.60;33.75;;;-2.20;99.90;;;;;;4917044;29;20209;-84
2023/02/06 02:12:38;;;;;;;57.28;34.42;;;-2.20;99.90;;;;;;4920611;29;20208;-84
2023/02/06 02:15:06;;;;;;;63.53;36.33;;;-2.20;99.90;;;;;;4943938;28;20205;-84
2023/02/06 02:17:42;;;;;;;61.97;36.95;;;-2.00;99.90;;;;;;4981475;28;20211;-84
2023/02/06 02:20:40;;;;;;;55.63;34.85;;;-1.80;99.90;;;;;;4951336;29;20781;-83
2023/02/06 02:23:36;;;;;;;53.00;36.13;;;-1.70;99.90;;;;;;4962834;29;20223;-83
2023/02/06 02:26:29;;;;;;;51.38;34.47;;;-1.70;99.90;;;;;;4975587;28;20234;-83
2023/02/06 02:29:15;;;;;;;69.13;36.25;;;-1.70;99.90;;;;;;4961896;29;20199;-84
2023/02/06 02:31:52;;;;;;;64.28;36.83;;;-1.60;99.90;;;;;;4978941;28;20202;-83
2023/02/06 02:35:01;;;;;;;56.47;35.60;;;-1.60;99.90;;;;;;4979063;28;20211;-83
2023/02/06 02:37:58;;;;;;;61.15;38.60;;;-1.50;99.90;;;;;;4968396;29;20249;-82
2023/02/06 02:40:34;;;;;;;50.95;33.47;;;-1.50;99.90;;;;;;4962997;28;20203;-82
2023/02/06 02:43:20;;;;;;;56.63;36.47;;;-1.50;99.90;;;;;;4959984;28;20214;-82
2023/02/06 02:45:54;;;;;;;66.68;38.83;;;-1.50;99.90;;;;;;4960484;28;20229;-83
2023/02/06 02:48:32;;;;;;;55.22;36.10;;;-1.50;99.90;;;;;;4963015;28;20199;-83
2023/02/06 02:51:00;;;;;;;51.00;32.65;;;-1.50;99.90;;;;;;4960959;28;20202;-83
2023/02/06 02:53:27;;;;;;;54.03;32.90;;;-1.50;99.90;;;;;;4953185;28;20219;-83
2023/02/06 02:55:54;;;;;;;55.17;37.30;;;-1.60;99.90;;;;;;4962373;28;20203;-84
2023/02/06 02:58:25;;;;;;;52.20;36.13;;;-1.60;99.90;;;;;;4961707;28;20217;-83
2023/02/06 03:01:06;;;;;;;55.40;33.03;;;-1.60;99.90;;;;;;4956773;29;20210;-83
2023/02/06 03:03:36;;;;;;;59.33;34.40;;;-1.60;99.90;;;;;;4961854;29;20211;-83
2023/02/06 03:06:12;;;;;;;59.13;37.28;;;-1.60;99.90;;;;;;4962857;28;20231;-82
2023/02/06 03:08:49;;;;;;;60.63;34.35;;;-1.80;99.90;;;;;;4956738;28;20208;-82
2023/02/06 03:11:19;;;;;;;62.35;34.20;;;-1.90;99.90;;;;;;4963614;29;20234;-81
2023/02/06 03:13:56;;;;;;;61.15;31.85;;;-1.80;99.90;;;;;;4962959;29;20199;-81
2023/02/06 03:16:45;;;;;;;52.97;32.72;;;-1.80;99.90;;;;;;4966276;28;20220;-85
2023/02/06 03:19:18;;;;;;;66.63;37.00;;;-1.80;99.90;;;;;;4969611;28;20212;-81
2023/02/06 03:21:46;;;;;;;62.10;37.40;;;-1.90;99.90;;;;;;4965750;28;20215;-83
2023/02/06 03:24:18;;;;;;;61.58;35.10;;;-2.00;99.90;;;;;;4964684;29;20203;-82
2023/02/06 03:26:49;;;;;;;52.20;33.05;;;-2.00;99.90;;;;;;4962023;28;20223;-83
2023/02/06 03:29:17;;;;;;;57.85;33.58;;;-2.10;99.90;;;;;;4961877;28;20203;-82
2023/02/06 03:31:52;;;;;;;53.95;35.78;;;-2.20;99.90;;;;;;4961018;29;20241;-82
2023/02/06 03:34:39;;;;;;;56.35;30.98;;;-2.20;99.90;;;;;;4961013;28;20234;-82
2023/02/06 03:37:06;;;;;;;50.78;30.00;;;-2.40;99.90;;;;;;4956791;29;20494;-79
2023/02/06 03:39:33;;;;;;;49.08;31.27;;;-2.60;99.90;;;;;;4961189;29;20431;-79
2023/02/06 03:42:03;;;;;;;46.22;30.45;;;-2.70;99.90;;;;;;4959628;28;20564;-79
2023/02/06 03:44:35;;;;;;;50.42;31.67;;;-2.80;99.90;;;;;;4960254;28;20210;-81
2023/02/06 03:47:03;;;;;;;43.53;28.70;;;-2.70;99.90;;;;;;4958791;28;20227;-80
2023/02/06 03:49:33;;;;;;;49.08;30.38;;;-2.60;99.90;;;;;;4957728;28;20244;-79
2023/02/06 03:52:06;;;;;;;45.90;28.20;;;-2.30;99.90;;;;;;4959991;29;20254;-82
2023/02/06 03:54:38;;;;;;;45.60;30.05;;;-2.00;99.90;;;;;;4961370;29;20422;-83
2023/02/06 03:57:08;;;;;;;41.47;25.35;;;-2.00;99.90;;;;;;4963442;28;20207;-81
2023/02/06 03:59:35;;;;;;;42.15;27.00;;;-2.20;99.90;;;;;;4967958;28;20384;-81
2023/02/06 04:02:04;;;;;;;43.75;27.63;;;-2.20;99.90;;;;;;4960342;28;20214;-81
2023/02/06 04:04:36;;;;;;;37.85;24.90;;;-1.90;99.90;;;;;;4960524;28;20245;-82
2023/02/06 04:07:18;;;;;;;45.67;25.92;;;-1.90;99.90;;;;;;4961377;28;20246;-82
2023/02/06 04:09:45;;;;;;;41.15;26.98;;;-1.70;99.90;;;;;;4961379;28;20253;-81
2023/02/06 04:12:12;;;;;;;41.28;25.73;;;-1.80;99.90;;;;;;4961270;29;20246;-81
2023/02/06 04:14:39;;;;;;;35.25;25.80;;;-1.90;99.90;;;;;;4962053;28;20215;-81
2023/02/06 04:17:07;;;;;;;41.95;26.15;;;-1.80;99.90;;;;;;4962261;28;20218;-82
2023/02/06 04:19:34;;;;;;;44.63;25.27;;;-1.70;99.90;;;;;;4960166;28;20211;-81
2023/02/06 04:22:01;;;;;;;48.78;25.92;;;-1.80;99.90;;;;;;4961283;28;20254;-83
2023/02/06 04:24:29;;;;;;;50.35;27.52;;;-1.80;99.90;;;;;;4959448;28;20211;-83
2023/02/06 04:26:57;;;;;;;44.72;25.88;;;-1.70;99.90;;;;;;4959315;28;20223;-80
2023/02/06 04:29:25;;;;;;;52.35;30.67;;;-1.60;99.90;;;;;;4959546;28;20477;-81
2023/02/06 04:31:51;;;;;;;42.90;26.60;;;-1.50;99.90;;;;;;4959809;28;20261;-79
2023/02/06 04:34:19;;;;;;;52.13;30.20;;;-1.50;99.90;;;;;;4960002;28;20215;-80
2023/02/06 04:36:46;;;;;;;44.40;26.95;;;-1.60;99.90;;;;;;4959314;28;20210;-81
2023/02/06 04:39:13;;;;;;;45.47;25.17;;;-1.50;99.90;;;;;;4950716;28;20266;-82
2023/02/06 04:41:40;;;;;;;43.65;27.85;;;-1.60;99.90;;;;;;4957821;29;20302;-82
2023/02/06 04:44:07;;;;;;;42.08;25.38;;;-1.70;99.90;;;;;;4952158;28;20214;-82
2023/02/06 04:46:34;;;;;;;43.88;27.70;;;-1.90;99.90;;;;;;4959960;28;20261;-84
2023/02/06 04:49:02;;;;;;;39.22;26.05;;;-2.00;99.90;;;;;;4960557;29;20211;-80
2023/02/06 04:51:29;;;;;;;46.97;27.55;;;-1.80;99.90;;;;;;4961407;28;20204;-82
2023/02/06 04:53:56;;;;;;;41.75;23.80;;;-1.80;99.90;;;;;;4960041;29;20431;-82
2023/02/06 04:56:24;;;;;;;47.60;26.92;;;-1.80;99.90;;;;;;4959271;28;20546;-81
2023/02/06 04:58:51;;;;;;;43.75;27.00;;;-2.00;99.90;;;;;;4959504;28;20207;-80
2023/02/06 05:01:19;;;;;;;41.42;24.48;;;-2.10;99.90;;;;;;4960103;28;20210;-82
2023/02/06 05:03:46;;;;;;;51.15;28.10;;;-2.30;99.90;;;;;;4959398;28;20213;-81
2023/02/06 05:06:14;;;;;;;40.75;26.13;;;-2.20;99.90;;;;;;4959347;28;20238;-81
2023/02/06 05:08:41;;;;;;;44.63;25.73;;;-2.40;99.90;;;;;;4959400;28;20211;-81
2023/02/06 05:11:08;;;;;;;44.58;25.60;;;-2.10;99.90;;;;;;4953507;29;20263;-82
2023/02/06 05:13:36;;;;;;;42.00;27.05;;;-1.90;99.90;;;;;;4959050;29;20219;-80
2023/02/06 05:16:07;;;;;;;39.67;25.48;;;-1.70;99.90;;;;;;4957665;29;20285;-83
2023/02/06 05:18:35;;;;;;;49.75;30.52;;;-1.70;99.90;;;;;;4962384;29;20211;-84
2023/02/06 05:21:02;;;;;;;44.30;28.00;;;-1.80;99.90;;;;;;4958828;28;20553;-82
2023/02/06 05:23:31;;;;;;;45.45;27.48;;;-1.70;99.90;;;;;;4959597;29;20513;-82
2023/02/06 05:25:59;;;;;;;45.00;26.58;;;-1.60;99.90;;;;;;4961684;29;20203;-81
2023/02/06 05:28:28;;;;;;;43.35;27.08;;;-1.70;99.90;;;;;;4971286;28;20210;-83
2023/02/06 05:30:55;;;;;;;43.42;30.92;;;-1.70;99.90;;;;;;4969432;28;20203;-82
2023/02/06 05:33:23;;;;;;;45.08;28.10;;;-1.70;99.90;;;;;;4968937;29;20206;-84
2023/02/06 05:35:50;;;;;;;81.07;43.28;;;-1.70;99.90;;;;;;4956650;29;20204;-82
2023/02/06 05:38:16;;;;;;;50.85;29.42;;;-2.00;99.90;;;;;;4965128;29;20249;-82
2023/02/06 05:40:44;;;;;;;47.40;30.10;;;-2.00;99.90;;;;;;4963923;29;20207;-82
2023/02/06 05:43:11;;;;;;;49.63;28.33;;;-1.80;99.90;;;;;;4955764;28;20255;-81
2023/02/06 05:45:38;;;;;;;47.53;28.30;;;-1.60;99.90;;;;;;4958621;28;20266;-81
2023/02/06 05:48:05;;;;;;;54.67;29.52;;;-1.50;99.90;;;;;;4956662;28;20461;-80
2023/02/06 05:50:33;;;;;;;54.20;29.17;;;-1.50;99.90;;;;;;4950240;29;20274;-80
2023/02/06 05:53:00;;;;;;;41.35;26.90;;;-1.40;99.90;;;;;;4955372;28;20219;-81
2023/02/06 05:55:27;;;;;;;38.90;24.85;;;-1.50;99.90;;;;;;4947517;29;20215;-80
2023/02/06 05:57:54;;;;;;;44.97;26.92;;;-1.80;99.90;;;;;;4959970;28;20254;-82
2023/02/06 06:00:21;;;;;;;41.60;25.52;;;-1.80;99.90;;;;;;4955894;28;20254;-82
2023/02/06 06:02:48;;;;;;;45.80;26.48;;;-2.10;99.90;;;;;;4951727;29;20207;-82
2023/02/06 06:05:15;;;;;;;47.60;25.40;;;-1.90;99.90;;;;;;4959102;28;20214;-80
2023/02/06 06:07:42;;;;;;;48.45;28.90;;;-1.60;99.90;;;;;;4963887;28;20281;-82
2023/02/06 06:10:09;;;;;;;42.45;28.20;;;-1.70;99.90;;;;;;4962793;28;20199;-81
2023/02/06 06:12:36;;;;;;;44.80;29.13;;;-1.70;99.90;;;;;;4962210;28;20524;-83
2023/02/06 06:15:04;;;;;;;45.83;28.70;;;-1.80;99.90;;;;;;4962788;28;20225;-81
2023/02/06 06:17:31;;;;;;;44.08;27.20;;;-1.70;99.90;;;;;;4964060;28;20479;-82
2023/02/06 06:19:58;;;;;;;46.03;26.70;;;-1.90;99.90;;;;;;4963612;28;20544;-81
2023/02/06 06:22:25;;;;;;;54.58;30.00;;;-1.70;99.90;;;;;;4961537;28;20254;-82
2023/02/06 06:24:52;;;;;;;50.83;27.85;;;-1.80;99.90;;;;;;4961782;28;20206;-82
2023/02/06 06:27:20;;;;;;;44.20;26.13;;;-1.80;99.90;;;;;;4963488;29;20388;-84
2023/02/06 06:29:46;;;;;;;41.28;25.60;;;-1.80;99.90;;;;;;4963823;28;20220;-81
2023/02/06 06:32:14;;;;;;;47.53;27.05;;;-1.80;99.90;;;;;;4966991;28;20207;-81
2023/02/06 06:34:41;;;;;;;41.10;25.45;;;-1.80;99.90;;;;;;4965775;29;20549;-84
2023/02/06 06:37:08;;;;;;;44.33;26.10;;;-1.80;99.90;;;;;;4964994;28;20265;-83
2023/02/06 06:39:35;;;;;;;44.25;30.25;;;-1.70;99.90;;;;;;4959749;29;20435;-82
2023/02/06 06:42:03;;;;;;;41.47;26.73;;;-1.60;99.90;;;;;;4981702;28;20240;-84
2023/02/06 06:44:30;;;;;;;50.88;28.45;;;-1.60;99.90;;;;;;4971022;28;20214;-81
2023/02/06 06:46:57;;;;;;;47.53;27.25;;;-1.40;99.90;;;;;;4971903;28;20242;-84
2023/02/06 06:49:24;;;;;;;46.45;26.90;;;-1.50;99.90;;;;;;4958227;28;20210;-84
2023/02/06 06:51:54;;;;;;;47.20;26.45;;;-1.50;99.90;;;;;;4963234;28;20222;-84
2023/02/06 06:54:21;;;;;;;51.50;28.17;;;-1.20;99.90;;;;;;4957992;29;20273;-84
2023/02/06 06:56:48;;;;;;;45.80;28.88;;;-1.40;99.90;;;;;;4961201;29;20223;-83
2023/02/06 06:59:15;;;;;;;46.25;28.23;;;-1.30;99.90;;;;;;4965315;28;20202;-85
2023/02/06 07:01:43;;;;;;;46.33;26.67;;;-1.20;99.90;;;;;;4969740;28;20209;-84
2023/02/06 07:04:09;;;;;;;40.15;26.00;;;-1.30;99.90;;;;;;4961991;28;20211;-82
2023/02/06 07:06:36;;;;;;;44.88;28.33;;;-1.20;99.90;;;;;;4961825;28;20234;-85
2023/02/06 07:09:03;;;;;;;47.03;28.00;;;-1.20;99.90;;;;;;4966114;28;20483;-85
2023/02/06 07:11:30;;;;;;;47.30;28.23;;;-1.10;99.90;;;;;;4954654;29;20215;-83
2023/02/06 07:13:57;;;;;;;45.20;26.40;;;-0.90;99.90;;;;;;4959498;29;20491;-83
2023/02/06 07:16:24;;;;;;;38.47;24.38;;;-0.70;99.90;;;;;;4964214;28;20595;-85
2023/02/06 07:18:51;;;;;;;47.63;23.88;;;-0.60;99.90;;;;;;4965358;28;20206;-84
2023/02/06 07:21:18;;;;;;;41.10;26.55;;;-0.40;99.90;;;;;;4957120;28;20212;-83
2023/02/06 07:23:46;;;;;;;41.03;23.88;;;-0.40;99.90;;;;;;4965778;29;20207;-83
2023/02/06 07:26:12;;;;;;;59.58;26.85;;;-0.30;99.90;;;;;;4971819;28;20207;-84
2023/02/06 07:28:41;;;;;;;45.05;25.27;;;-0.70;99.90;;;;;;4978359;29;20230;-84
2023/02/06 07:31:08;;;;;;;34.75;22.98;;;-0.70;99.90;;;;;;4976055;28;20271;-83
2023/02/06 07:33:35;;;;;;;38.55;23.80;;;-0.60;99.90;;;;;;4974563;28;20442;-84
2023/02/06 07:36:02;;;;;;;41.60;24.20;;;-0.60;99.90;;;;;;4969034;28;20218;-83
2023/02/06 07:38:30;;;;;;;38.72;23.25;;;-0.40;99.90;;;;;;4965681;29;20258;-89
2023/02/06 07:41:01;;;;;;;39.45;24.23;;;-0.20;99.90;;;;;;4964500;29;20206;-82
2023/02/06 07:43:29;;;;;;;38.33;22.35;;;-0.10;99.90;;;;;;4955582;29;20610;-82
2023/02/06 07:46:00;;;;;;;33.58;21.38;;;0.10;99.90;;;;;;4965660;29;20199;-82
2023/02/06 07:48:28;;;;;;;39.47;22.52;;;0.30;99.90;;;;;;4975839;28;20229;-82
2023/02/06 07:50:56;;;;;;;36.95;20.70;;;0.50;99.90;;;;;;4978882;28;20283;-82
2023/02/06 07:53:26;;;;;;;33.88;20.05;;;0.20;99.90;;;;;;4978939;28;20199;-82
2023/02/06 07:55:54;;;;;;;36.47;22.65;;;0.30;99.90;;;;;;4978543;28;20230;-82
2023/02/06 07:58:24;;;;;;;40.05;26.02;;;1.10;99.90;;;;;;4978958;28;20195;-81
2023/02/06 08:00:53;;;;;;;35.75;20.85;;;2.40;99.90;;;;;;4978002;28;20242;-80
2023/02/06 08:03:20;;;;;;;42.55;22.38;;;4.00;99.90;;;;;;4977681;28;20189;-84
2023/02/06 08:05:47;;;;;;;43.55;22.23;;;4.60;99.90;;;;;;4977587;28;20189;-83
2023/02/06 08:08:17;;;;;;;45.80;22.77;;;4.60;99.90;;;;;;4977260;28;20236;-83
2023/02/06 08:10:44;;;;;;;42.78;21.45;;;4.50;99.90;;;;;;4974271;28;20202;-83
2023/02/06 08:13:11;;;;;;;31.67;18.42;;;4.70;99.90;;;;;;4973561;28;20193;-83
2023/02/06 08:15:38;;;;;;;30.30;19.58;;;4.90;99.90;;;;;;4989723;28;20234;-83
2023/02/06 08:18:05;;;;;;;63.35;26.77;;;5.30;99.90;;;;;;4972081;28;20507;-82
2023/02/06 08:20:31;;;;;;;33.30;20.05;;;5.80;99.90;;;;;;4965870;28;20295;-82
2023/02/06 08:22:59;;;;;;;29.05;17.85;;;5.90;99.90;;;;;;4959694;29;20269;-82
2023/02/06 08:25:26;;;;;;;31.20;17.95;;;5.50;99.90;;;;;;4959953;28;20215;-80
2023/02/06 08:27:54;;;;;;;32.60;17.58;;;4.90;99.90;;;;;;4960080;28;20745;-81
2023/02/06 08:30:22;;;;;;;29.77;17.08;;;4.00;99.90;;;;;;4958397;28;20206;-82
2023/02/06 08:32:49;;;;;;;31.27;18.10;;;3.40;99.90;;;;;;4955763;29;20214;-80
2023/02/06 08:35:17;;;;;;;27.95;17.63;;;3.20;99.90;;;;;;4958981;28;20562;-81
2023/02/06 08:37:43;;;;;;;37.83;18.95;;;2.80;99.90;;;;;;4960293;28;20408;-82
2023/02/06 08:40:11;;;;;;;44.15;18.80;;;2.50;99.90;;;;;;4959649;29;20236;-81
2023/02/06 08:42:38;;;;;;;24.42;15.40;;;2.60;99.90;;;;;;4960067;28;20210;-83
2023/02/06 08:45:06;;;;;;;30.83;17.13;;;2.80;99.90;;;;;;4959169;28;20210;-82
2023/02/06 08:47:33;;;;;;;27.85;16.40;;;3.10;99.90;;;;;;4956768;28;20233;-82
2023/02/06 08:50:00;;;;;;;29.88;17.17;;;3.40;99.90;;;;;;4959132;28;20210;-83
2023/02/06 08:52:29;;;;;;;37.42;17.40;;;4.00;99.90;;;;;;4959501;28;20217;-82
2023/02/06 08:54:56;;;;;;;25.40;15.18;;;4.10;99.90;;;;;;4960019;28;20261;-81
2023/02/06 08:57:23;;;;;;;29.88;17.77;;;3.80;99.90;;;;;;4960370;28;20276;-80
2023/02/06 08:59:50;;;;;;;19.88;13.48;;;3.70;99.90;;;;;;4960140;28;20568;-80
2023/02/06 09:02:17;;;;;;;36.17;17.42;;;3.20;99.90;;;;;;4959192;28;20202;-82
2023/02/06 09:04:45;;;;;;;33.78;17.77;;;3.30;99.90;;;;;;4959933;29;20334;-81
2023/02/06 09:07:11;;;;;;;27.98;15.02;;;3.30;99.90;;;;;;4959398;28;20350;-81
2023/02/06 09:09:42;;;;;;;26.58;15.30;;;3.40;99.90;;;;;;4958974;28;20236;-81
2023/02/06 09:12:10;;;;;;;30.38;14.75;;;3.40;99.90;;;;;;4959085;28;20207;-81
2023/02/06 09:14:38;;;;;;;27.42;13.65;;;3.60;99.90;;;;;;4958882;28;20571;-81
2023/02/06 09:17:05;;;;;;;26.35;11.35;;;3.60;99.90;;;;;;4958754;28;20322;-81
2023/02/06 09:19:32;;;;;;;22.00;11.85;;;3.20;99.90;;;;;;4958652;28;20272;-81
2023/02/06 09:21:59;;;;;;;15.80;10.68;;;3.20;99.90;;;;;;4959357;28;20210;-80
2023/02/06 09:24:28;;;;;;;22.65;13.07;;;3.00;99.90;;;;;;4959195;28;20205;-81
2023/02/06 09:26:55;;;;;;;23.10;11.95;;;2.50;99.90;;;;;;4959170;28;20388;-80
2023/02/06 09:29:28;;;;;;;18.25;10.65;;;2.30;99.90;;;;;;4958227;29;20315;-81
2023/02/06 09:31:56;;;;;;;21.23;13.30;;;2.20;99.90;;;;;;4959015;28;20209;-81
2023/02/06 09:34:24;;;;;;;15.25;11.02;;;2.20;99.90;;;;;;4959138;28;20239;-81
2023/02/06 09:36:53;;;;;;;22.45;10.00;;;2.50;99.90;;;;;;4958845;28;20209;-83
2023/02/06 09:39:20;;;;;;;18.60;10.75;;;2.60;99.90;;;;;;4958585;28;20200;-81
2023/02/06 09:41:58;;;;;;;12.10;5.65;;;2.40;99.90;;;;;;4959642;28;20236;-81
2023/02/06 09:44:31;;;;;;;10.43;5.50;;;2.30;99.90;;;;;;4963365;28;20201;-82
2023/02/06 09:47:23;;;;;;;11.32;7.53;;;2.50;99.90;;;;;;4962885;28;20213;-80
2023/02/06 09:49:58;;;;;;;16.05;10.43;;;2.30;99.90;;;;;;4960569;29;20288;-81
2023/02/06 09:52:30;;;;;;;26.65;17.23;;;2.50;99.90;;;;;;4961741;28;20212;-82
2023/02/06 09:55:31;;;;;;;27.70;14.93;;;2.90;99.90;;;;;;4962454;28;20426;-81
2023/02/06 09:58:27;;;;;;;21.08;13.93;;;2.90;99.90;;;;;;4960553;28;20221;-82
2023/02/06 10:01:12;;;;;;;29.25;14.98;;;2.70;99.90;;;;;;4962604;29;20393;-81
2023/02/06 10:03:55;;;;;;;22.42;14.88;;;2.10;99.90;;;;;;4962224;28;20256;-84
2023/02/06 10:06:51;;;;;;;22.80;13.45;;;1.90;99.90;;;;;;4961939;29;20201;-80
2023/02/06 10:09:28;;;;;;;14.57;10.60;;;2.10;99.90;;;;;;4961312;28;20293;-80
2023/02/06 10:12:03;;;;;;;26.52;14.90;;;2.00;99.90;;;;;;4962283;28;20516;-81
2023/02/06 10:14:31;;;;;;;23.55;14.93;;;1.80;99.90;;;;;;4962784;29;20510;-80
2023/02/06 10:17:05;;;;;;;29.95;15.40;;;1.70;99.90;;;;;;4958607;28;20212;-79
2023/02/06 10:19:58;;;;;;;33.75;14.80;;;2.00;99.90;;;;;;4971795;28;20239;-83
2023/02/06 10:22:49;;;;;;;20.55;12.13;;;2.20;99.90;;;;;;4966850;28;20219;-78
2023/02/06 10:25:29;;;;;;;15.60;8.93;;;2.30;99.90;;;;;;4965852;28;20526;-81
2023/02/06 10:28:00;;;;;;;15.73;8.35;;;2.50;99.90;;;;;;4961445;29;20547;-80
2023/02/06 10:30:52;;;;;;;19.17;10.10;;;2.60;99.90;;;;;;4962237;29;20244;-80
2023/02/06 10:33:27;;;;;;;13.60;8.25;;;2.50;99.90;;;;;;4962490;28;20234;-80
2023/02/06 10:36:03;;;;;;;16.00;9.30;;;2.40;99.90;;;;;;4961494;29;20394;-81
2023/02/06 10:38:37;;;;;;;19.92;8.70;;;2.30;99.90;;;;;;4961628;28;20220;-80
2023/02/06 10:41:14;;;;;;;19.63;7.75;;;2.00;99.90;;;;;;4959633;29;20207;-79
2023/02/06 10:44:03;;;;;;;17.13;7.97;;;1.60;99.90;;;;;;4961061;28;20207;-81
2023/02/06 10:46:42;;;;;;;16.70;9.52;;;1.30;99.90;;;;;;4961170;28;20231;-80
2023/02/06 10:49:29;;;;;;;13.00;8.27;;;1.40;99.90;;;;;;4960317;29;20537;-81
2023/02/06 10:51:59;;;;;;;14.50;9.48;;;1.20;99.90;;;;;;4953917;28;20274;-80
2023/02/06 10:54:40;;;;;;;15.75;8.70;;;0.90;99.90;;;;;;4958934;28;20232;-81
2023/02/06 10:57:18;;;;;;;16.38;10.05;;;1.00;99.90;;;;;;4960694;28;20211;-80
2023/02/06 10:59:50;;;;;;;70.78;27.25;;;1.30;99.90;;;;;;4961402;28;20243;-80
2023/02/06 11:02:54;;;;;;;26.20;15.40;;;1.50;99.90;;;;;;4960882;28;20206;-81
2023/02/06 11:05:36;;;;;;;16.42;10.55;;;1.70;99.90;;;;;;4958117;29;20212;-80
2023/02/06 11:08:20;;;;;;;27.70;11.43;;;2.10;99.90;;;;;;4960660;28;20236;-80
2023/02/06 11:10:48;;;;;;;25.80;10.25;;;2.10;99.90;;;;;;4958154;28;20258;-81
2023/02/06 11:13:37;;;;;;;13.93;8.38;;;2.10;99.90;;;;;;4960452;28;20248;-82
2023/02/06 11:16:15;;;;;;;14.18;8.23;;;2.00;99.90;;;;;;4960596;29;20200;-81
2023/02/06 11:18:47;;;;;;;36.80;21.40;;;1.90;99.90;;;;;;4962846;29;20539;-82
2023/02/06 11:21:45;;;;;;;23.80;12.07;;;2.10;99.90;;;;;;4960968;28;20244;-83
2023/02/06 11:24:15;;;;;;;34.35;13.20;;;2.20;99.90;;;;;;4960498;28;20208;-81
2023/02/06 11:26:48;;;;;;;51.67;21.27;;;2.50;99.90;;;;;;4962653;28;20769;-82
2023/02/06 11:29:25;;;;;;;16.58;9.95;;;2.40;99.90;;;;;;4955125;28;20409;-82
2023/02/06 11:31:57;;;;;;;17.73;10.45;;;2.10;99.90;;;;;;4953814;29;20256;-81
2023/02/06 11:34:37;;;;;;;62.42;26.10;;;2.00;99.90;;;;;;4964382;28;20226;-84
2023/02/06 11:37:34;;;;;;;45.60;18.40;;;2.00;99.90;;;;;;4960766;29;20278;-81
2023/02/06 11:40:27;;;;;;;17.17;11.15;;;2.20;99.90;;;;;;4955838;29;20399;-81
2023/02/06 11:43:19;;;;;;;12.43;8.93;;;2.30;99.90;;;;;;4955284;28;20214;-83
2023/02/06 11:45:48;;;;;;;17.92;10.35;;;2.20;99.90;;;;;;4962228;29;20215;-83
2023/02/06 11:48:38;;;;;;;16.30;11.00;;;1.90;99.90;;;;;;4962224;28;20262;-82
2023/02/06 11:51:07;;;;;;;28.48;15.27;;;2.00;99.90;;;;;;4955631;28;20215;-83
2023/02/06 11:53:35;;;;;;;23.52;11.75;;;2.10;99.90;;;;;;4960311;28;20219;-83
2023/02/06 11:56:16;;;;;;;16.58;10.55;;;2.00;99.90;;;;;;4960797;29;20560;-83
2023/02/06 11:58:44;;;;;;;14.35;10.35;;;1.80;99.90;;;;;;4960503;28;20287;-85
2023/02/06 12:01:21;;;;;;;12.75;8.25;;;1.60;99.90;;;;;;4959734;28;20255;-83
2023/02/06 12:03:48;;;;;;;15.60;11.60;;;1.60;99.90;;;;;;4956617;29;20254;-84
2023/02/06 12:06:29;;;;;;;12.18;7.57;;;1.50;99.90;;;;;;4960274;28;20200;-85
2023/02/06 12:08:58;;;;;;;13.93;8.45;;;1.30;99.90;;;;;;4960165;28;20245;-82
2023/02/06 12:11:57;;;;;;;11.70;7.15;;;1.20;99.90;;;;;;4960058;28;20210;-82
2023/02/06 12:14:40;;;;;;;12.35;8.63;;;1.10;99.90;;;;;;4960145;28;20214;-82
2023/02/06 12:17:27;;;;;;;15.15;7.75;;;1.30;99.90;;;;;;4961322;28;20321;-83
2023/02/06 12:20:13;;;;;;;15.23;8.23;;;1.40;99.90;;;;;;4952699;29;20223;-84
2023/02/06 12:22:46;;;;;;;14.00;10.23;;;1.20;99.90;;;;;;4961753;28;20199;-84
2023/02/06 12:25:33;;;;;;;13.27;8.98;;;1.10;99.90;;;;;;4961605;28;20257;-83
2023/02/06 12:28:37;;;;;;;13.45;7.65;;;1.20;99.90;;;;;;4959862;28;20483;-84
2023/02/06 12:31:18;;;;;;;12.60;7.63;;;1.30;99.90;;;;;;4960397;29;20751;-84
2023/02/06 12:33:51;;;;;;;14.38;11.20;;;1.40;99.90;;;;;;4960890;28;20212;-84
2023/02/06 12:36:26;;;;;;;20.77;10.20;;;1.20;99.90;;;;;;4960309;28;20281;-83
2023/02/06 12:39:03;;;;;;;15.10;8.68;;;1.10;99.90;;;;;;4953781;28;20265;-84
2023/02/06 12:42:01;;;;;;;14.15;8.70;;;1.20;99.90;;;;;;4960500;28;20211;-83
2023/02/06 12:44:39;;;;;;;14.88;9.05;;;1.20;99.90;;;;;;4961029;28;20207;-84
2023/02/06 12:47:41;;;;;;;10.90;8.55;;;1.20;99.90;;;;;;4959981;29;20230;-84
2023/02/06 12:50:41;;;;;;;15.70;9.88;;;0.90;99.90;;;;;;4960370;29;20256;-84
2023/02/06 12:53:19;;;;;;;10.32;7.43;;;1.20;99.90;;;;;;4956693;28;20203;-84
2023/02/06 12:55:55;;;;;;;13.18;8.65;;;1.30;99.90;;;;;;4961493;28;20258;-83
2023/02/06 12:58:40;;;;;;;10.50;8.52;;;1.30;99.90;;;;;;4960756;28;20219;-84